sensor_id;sensor_type;location;lat;lon;timestamp;P1;durP1;ratioP1;P2;durP2;ratioP2
78346;SDS011;67803;41.330;69.282;2023-02-28T00:00:39;33.25;;;8.90;;
78346;SDS011;67803;41.330;69.282;2023-02-28T00:03:10;28.90;;;7.82;;
78346;SDS011;67803;41.330;69.282;2023-02-28T00:05:40;27.65;;;7.43;;
78346;SDS011;67803;41.330;69.282;2023-02-28T00:08:11;25.73;;;8.05;;
78346;SDS011;67803;41.330;69.282;2023-02-28T00:10:43;29.67;;;6.78;;
78346;SDS011;67803;41.330;69.282;2023-02-28T00:13:13;27.70;;;6.38;;
78346;SDS011;67803;41.330;69.282;2023-02-28T00:15:44;30.92;;;6.95;;
78346;SDS011;67803;41.330;69.282;2023-02-28T00:18:15;26.63;;;6.05;;
78346;SDS011;67803;41.330;69.282;2023-02-28T00:20:45;22.20;;;7.13;;
78346;SDS011;67803;41.330;69.282;2023-02-28T00:23:16;36.58;;;7.85;;
78346;SDS011;67803;41.330;69.282;2023-02-28T00:25:46;27.67;;;7.63;;
78346;SDS011;67803;41.330;69.282;2023-02-28T00:28:17;28.00;;;6.38;;
78346;SDS011;67803;41.330;69.282;2023-02-28T00:30:48;33.08;;;7.28;;
78346;SDS011;67803;41.330;69.282;2023-02-28T00:33:18;24.65;;;6.75;;
78346;SDS011;67803;41.330;69.282;2023-02-28T00:35:49;36.85;;;6.10;;
78346;SDS011;67803;41.330;69.282;2023-02-28T00:38:21;27.20;;;7.03;;
78346;SDS011;67803;41.330;69.282;2023-02-28T00:40:52;34.58;;;7.15;;
78346;SDS011;67803;41.330;69.282;2023-02-28T00:43:22;27.67;;;6.75;;
78346;SDS011;67803;41.330;69.282;2023-02-28T00:45:52;26.40;;;6.22;;
78346;SDS011;67803;41.330;69.282;2023-02-28T00:48:23;27.35;;;6.22;;
78346;SDS011;67803;41.330;69.282;2023-02-28T00:50:53;20.65;;;5.18;;
78346;SDS011;67803;41.330;69.282;2023-02-28T00:53:24;30.58;;;6.43;;
78346;SDS011;67803;41.330;69.282;2023-02-28T00:55:55;30.60;;;7.10;;
78346;SDS011;67803;41.330;69.282;2023-02-28T00:58:25;28.70;;;7.68;;
78346;SDS011;67803;41.330;69.282;2023-02-28T01:00:56;27.45;;;7.60;;
78346;SDS011;67803;41.330;69.282;2023-02-28T01:03:26;29.60;;;6.32;;
78346;SDS011;67803;41.330;69.282;2023-02-28T01:05:57;21.52;;;6.00;;
78346;SDS011;67803;41.330;69.282;2023-02-28T01:08:27;34.25;;;8.52;;
78346;SDS011;67803;41.330;69.282;2023-02-28T01:10:58;30.02;;;6.72;;
78346;SDS011;67803;41.330;69.282;2023-02-28T01:13:36;33.22;;;6.05;;
78346;SDS011;67803;41.330;69.282;2023-02-28T01:16:07;22.33;;;6.15;;
78346;SDS011;67803;41.330;69.282;2023-02-28T01:18:38;30.60;;;6.03;;
78346;SDS011;67803;41.330;69.282;2023-02-28T01:21:12;30.58;;;4.85;;
78346;SDS011;67803;41.330;69.282;2023-02-28T01:23:43;26.88;;;5.00;;
78346;SDS011;67803;41.330;69.282;2023-02-28T01:26:17;20.20;;;4.60;;
78346;SDS011;67803;41.330;69.282;2023-02-28T01:28:48;24.58;;;4.88;;
78346;SDS011;67803;41.330;69.282;2023-02-28T01:31:19;28.33;;;5.40;;
78346;SDS011;67803;41.330;69.282;2023-02-28T01:33:50;37.63;;;6.13;;
78346;SDS011;67803;41.330;69.282;2023-02-28T01:36:22;27.58;;;6.10;;
78346;SDS011;67803;41.330;69.282;2023-02-28T01:38:52;37.90;;;4.55;;
78346;SDS011;67803;41.330;69.282;2023-02-28T01:41:24;36.30;;;5.43;;
78346;SDS011;67803;41.330;69.282;2023-02-28T01:46:25;21.88;;;5.55;;
78346;SDS011;67803;41.330;69.282;2023-02-28T01:49:07;34.97;;;5.60;;
78346;SDS011;67803;41.330;69.282;2023-02-28T01:54:10;44.25;;;6.55;;
78346;SDS011;67803;41.330;69.282;2023-02-28T01:56:44;22.70;;;4.13;;
78346;SDS011;67803;41.330;69.282;2023-02-28T01:59:20;23.60;;;5.25;;
78346;SDS011;67803;41.330;69.282;2023-02-28T02:01:52;28.27;;;5.70;;
78346;SDS011;67803;41.330;69.282;2023-02-28T02:04:23;20.17;;;5.43;;
78346;SDS011;67803;41.330;69.282;2023-02-28T02:06:55;42.45;;;6.18;;
78346;SDS011;67803;41.330;69.282;2023-02-28T02:09:26;34.05;;;6.65;;
78346;SDS011;67803;41.330;69.282;2023-02-28T02:11:56;34.67;;;6.95;;
78346;SDS011;67803;41.330;69.282;2023-02-28T02:17:38;34.63;;;6.25;;
78346;SDS011;67803;41.330;69.282;2023-02-28T02:25:52;29.83;;;8.38;;
78346;SDS011;67803;41.330;69.282;2023-02-28T02:43:53;34.75;;;8.95;;
78346;SDS011;67803;41.330;69.282;2023-02-28T02:46:33;37.55;;;8.05;;
78346;SDS011;67803;41.330;69.282;2023-02-28T02:49:06;36.22;;;8.55;;
78346;SDS011;67803;41.330;69.282;2023-02-28T02:51:38;39.80;;;9.02;;
78346;SDS011;67803;41.330;69.282;2023-02-28T02:54:12;40.88;;;9.20;;
78346;SDS011;67803;41.330;69.282;2023-02-28T02:56:48;30.80;;;9.60;;
78346;SDS011;67803;41.330;69.282;2023-02-28T02:59:20;32.72;;;10.73;;
78346;SDS011;67803;41.330;69.282;2023-02-28T03:01:53;45.10;;;11.43;;
78346;SDS011;67803;41.330;69.282;2023-02-28T03:04:25;38.17;;;12.40;;
78346;SDS011;67803;41.330;69.282;2023-02-28T03:06:57;47.33;;;11.32;;
78346;SDS011;67803;41.330;69.282;2023-02-28T03:09:27;49.47;;;10.27;;
78346;SDS011;67803;41.330;69.282;2023-02-28T03:11:58;51.67;;;11.82;;
78346;SDS011;67803;41.330;69.282;2023-02-28T03:14:35;39.20;;;12.57;;
78346;SDS011;67803;41.330;69.282;2023-02-28T03:30:03;45.88;;;12.27;;
78346;SDS011;67803;41.330;69.282;2023-02-28T03:32:37;48.92;;;11.63;;
78346;SDS011;67803;41.330;69.282;2023-02-28T03:35:10;42.40;;;12.43;;
78346;SDS011;67803;41.330;69.282;2023-02-28T03:37:42;43.63;;;11.68;;
78346;SDS011;67803;41.330;69.282;2023-02-28T03:40:15;51.25;;;10.32;;
78346;SDS011;67803;41.330;69.282;2023-02-28T03:42:48;45.35;;;10.07;;
78346;SDS011;67803;41.330;69.282;2023-02-28T03:45:25;47.95;;;11.10;;
78346;SDS011;67803;41.330;69.282;2023-02-28T03:48:07;43.10;;;11.75;;
78346;SDS011;67803;41.330;69.282;2023-02-28T03:50:40;48.25;;;12.35;;
78346;SDS011;67803;41.330;69.282;2023-02-28T03:53:16;49.03;;;12.60;;
78346;SDS011;67803;41.330;69.282;2023-02-28T03:56:05;55.03;;;12.70;;
78346;SDS011;67803;41.330;69.282;2023-02-28T03:58:38;50.45;;;13.65;;
78346;SDS011;67803;41.330;69.282;2023-02-28T04:01:16;48.08;;;12.25;;
78346;SDS011;67803;41.330;69.282;2023-02-28T04:03:49;52.70;;;12.85;;
78346;SDS011;67803;41.330;69.282;2023-02-28T04:06:21;49.65;;;12.93;;
78346;SDS011;67803;41.330;69.282;2023-02-28T04:08:52;57.78;;;12.38;;
78346;SDS011;67803;41.330;69.282;2023-02-28T04:11:25;51.17;;;13.52;;
78346;SDS011;67803;41.330;69.282;2023-02-28T04:16:28;56.43;;;13.20;;
78346;SDS011;67803;41.330;69.282;2023-02-28T04:18:59;57.53;;;13.15;;
78346;SDS011;67803;41.330;69.282;2023-02-28T04:21:47;59.20;;;13.43;;
78346;SDS011;67803;41.330;69.282;2023-02-28T04:24:19;74.07;;;15.40;;
78346;SDS011;67803;41.330;69.282;2023-02-28T04:26:50;55.53;;;13.35;;
78346;SDS011;67803;41.330;69.282;2023-02-28T04:29:28;64.18;;;13.32;;
78346;SDS011;67803;41.330;69.282;2023-02-28T04:31:59;61.20;;;13.88;;
78346;SDS011;67803;41.330;69.282;2023-02-28T04:34:31;59.30;;;12.90;;
78346;SDS011;67803;41.330;69.282;2023-02-28T04:37:02;59.25;;;13.55;;
78346;SDS011;67803;41.330;69.282;2023-02-28T04:39:34;53.92;;;12.70;;
78346;SDS011;67803;41.330;69.282;2023-02-28T04:42:05;49.22;;;12.95;;
78346;SDS011;67803;41.330;69.282;2023-02-28T04:44:36;43.03;;;10.60;;
78346;SDS011;67803;41.330;69.282;2023-02-28T04:47:06;47.22;;;9.82;;
78346;SDS011;67803;41.330;69.282;2023-02-28T04:49:37;45.63;;;8.85;;
78346;SDS011;67803;41.330;69.282;2023-02-28T04:52:07;53.95;;;9.63;;
78346;SDS011;67803;41.330;69.282;2023-02-28T04:54:38;44.58;;;7.78;;
78346;SDS011;67803;41.330;69.282;2023-02-28T04:57:09;45.47;;;6.80;;
78346;SDS011;67803;41.330;69.282;2023-02-28T04:59:39;48.83;;;5.80;;
78346;SDS011;67803;41.330;69.282;2023-02-28T05:02:10;38.45;;;5.80;;
78346;SDS011;67803;41.330;69.282;2023-02-28T05:04:40;43.60;;;4.70;;
78346;SDS011;67803;41.330;69.282;2023-02-28T05:07:11;28.10;;;5.70;;
78346;SDS011;67803;41.330;69.282;2023-02-28T05:09:41;38.55;;;4.93;;
78346;SDS011;67803;41.330;69.282;2023-02-28T05:12:11;50.90;;;6.10;;
78346;SDS011;67803;41.330;69.282;2023-02-28T05:14:42;45.03;;;5.53;;
78346;SDS011;67803;41.330;69.282;2023-02-28T05:17:14;45.40;;;4.78;;
78346;SDS011;67803;41.330;69.282;2023-02-28T05:19:44;31.10;;;5.75;;
78346;SDS011;67803;41.330;69.282;2023-02-28T05:22:15;47.17;;;5.35;;
78346;SDS011;67803;41.330;69.282;2023-02-28T05:24:46;41.03;;;4.88;;
78346;SDS011;67803;41.330;69.282;2023-02-28T05:27:17;48.65;;;5.35;;
78346;SDS011;67803;41.330;69.282;2023-02-28T05:29:47;38.85;;;4.32;;
78346;SDS011;67803;41.330;69.282;2023-02-28T05:32:18;57.22;;;7.72;;
78346;SDS011;67803;41.330;69.282;2023-02-28T05:34:48;46.45;;;5.47;;
78346;SDS011;67803;41.330;69.282;2023-02-28T05:37:19;52.97;;;5.90;;
78346;SDS011;67803;41.330;69.282;2023-02-28T05:39:50;41.70;;;6.07;;
78346;SDS011;67803;41.330;69.282;2023-02-28T05:42:20;42.22;;;5.78;;
78346;SDS011;67803;41.330;69.282;2023-02-28T05:44:51;44.00;;;6.40;;
78346;SDS011;67803;41.330;69.282;2023-02-28T05:47:22;54.38;;;5.45;;
78346;SDS011;67803;41.330;69.282;2023-02-28T05:49:52;43.03;;;5.28;;
78346;SDS011;67803;41.330;69.282;2023-02-28T05:52:22;49.80;;;5.55;;
78346;SDS011;67803;41.330;69.282;2023-02-28T05:54:53;48.13;;;5.22;;
78346;SDS011;67803;41.330;69.282;2023-02-28T05:57:24;43.72;;;5.28;;
78346;SDS011;67803;41.330;69.282;2023-02-28T05:59:54;37.10;;;5.55;;
78346;SDS011;67803;41.330;69.282;2023-02-28T06:02:25;51.33;;;5.80;;
78346;SDS011;67803;41.330;69.282;2023-02-28T06:04:55;43.92;;;6.25;;
78346;SDS011;67803;41.330;69.282;2023-02-28T06:07:26;39.55;;;6.25;;
78346;SDS011;67803;41.330;69.282;2023-02-28T06:09:56;44.22;;;7.25;;
78346;SDS011;67803;41.330;69.282;2023-02-28T06:12:27;53.50;;;8.35;;
78346;SDS011;67803;41.330;69.282;2023-02-28T06:14:57;41.30;;;7.75;;
78346;SDS011;67803;41.330;69.282;2023-02-28T06:17:28;52.55;;;9.35;;
78346;SDS011;67803;41.330;69.282;2023-02-28T06:19:58;46.00;;;8.07;;
78346;SDS011;67803;41.330;69.282;2023-02-28T06:22:29;31.13;;;6.13;;
78346;SDS011;67803;41.330;69.282;2023-02-28T06:24:59;26.50;;;6.55;;
78346;SDS011;67803;41.330;69.282;2023-02-28T06:27:30;34.50;;;6.30;;
78346;SDS011;67803;41.330;69.282;2023-02-28T06:30:02;25.70;;;5.47;;
78346;SDS011;67803;41.330;69.282;2023-02-28T06:32:33;26.88;;;5.80;;
78346;SDS011;67803;41.330;69.282;2023-02-28T06:35:04;32.72;;;6.22;;
78346;SDS011;67803;41.330;69.282;2023-02-28T06:37:34;30.30;;;7.13;;
78346;SDS011;67803;41.330;69.282;2023-02-28T06:40:05;48.20;;;7.97;;
78346;SDS011;67803;41.330;69.282;2023-02-28T06:42:36;38.78;;;7.32;;
78346;SDS011;67803;41.330;69.282;2023-02-28T06:45:07;31.25;;;6.35;;
78346;SDS011;67803;41.330;69.282;2023-02-28T06:47:39;29.90;;;7.03;;
78346;SDS011;67803;41.330;69.282;2023-02-28T06:50:11;42.65;;;6.78;;
78346;SDS011;67803;41.330;69.282;2023-02-28T06:52:41;36.90;;;7.47;;
78346;SDS011;67803;41.330;69.282;2023-02-28T06:55:12;28.38;;;7.13;;
78346;SDS011;67803;41.330;69.282;2023-02-28T06:57:43;31.50;;;6.38;;
78346;SDS011;67803;41.330;69.282;2023-02-28T07:00:13;34.50;;;8.13;;
78346;SDS011;67803;41.330;69.282;2023-02-28T07:02:44;36.25;;;7.30;;
78346;SDS011;67803;41.330;69.282;2023-02-28T07:05:14;32.83;;;7.10;;
78346;SDS011;67803;41.330;69.282;2023-02-28T07:07:45;71.63;;;11.35;;
78346;SDS011;67803;41.330;69.282;2023-02-28T07:10:17;35.63;;;7.40;;
78346;SDS011;67803;41.330;69.282;2023-02-28T07:12:47;32.83;;;6.45;;
78346;SDS011;67803;41.330;69.282;2023-02-28T07:15:18;32.25;;;6.97;;
78346;SDS011;67803;41.330;69.282;2023-02-28T07:17:48;55.17;;;8.82;;
78346;SDS011;67803;41.330;69.282;2023-02-28T07:20:19;46.63;;;7.63;;
78346;SDS011;67803;41.330;69.282;2023-02-28T07:22:50;30.90;;;6.93;;
78346;SDS011;67803;41.330;69.282;2023-02-28T07:25:26;32.65;;;7.53;;
78346;SDS011;67803;41.330;69.282;2023-02-28T07:27:57;36.85;;;7.28;;
78346;SDS011;67803;41.330;69.282;2023-02-28T07:30:29;33.72;;;6.93;;
78346;SDS011;67803;41.330;69.282;2023-02-28T07:32:59;28.50;;;6.72;;
78346;SDS011;67803;41.330;69.282;2023-02-28T07:35:30;33.00;;;7.22;;
78346;SDS011;67803;41.330;69.282;2023-02-28T07:38:01;23.45;;;6.82;;
78346;SDS011;67803;41.330;69.282;2023-02-28T07:40:33;28.77;;;6.05;;
78346;SDS011;67803;41.330;69.282;2023-02-28T07:43:04;36.70;;;7.15;;
78346;SDS011;67803;41.330;69.282;2023-02-28T07:45:34;44.65;;;8.85;;
78346;SDS011;67803;41.330;69.282;2023-02-28T07:48:05;38.13;;;7.32;;
78346;SDS011;67803;41.330;69.282;2023-02-28T07:50:35;35.90;;;7.15;;
78346;SDS011;67803;41.330;69.282;2023-02-28T07:53:06;35.95;;;7.18;;
78346;SDS011;67803;41.330;69.282;2023-02-28T07:55:36;45.28;;;8.10;;
78346;SDS011;67803;41.330;69.282;2023-02-28T07:58:07;33.58;;;7.72;;
78346;SDS011;67803;41.330;69.282;2023-02-28T08:00:37;35.28;;;6.47;;
78346;SDS011;67803;41.330;69.282;2023-02-28T08:03:10;40.90;;;6.68;;
78346;SDS011;67803;41.330;69.282;2023-02-28T08:05:42;26.48;;;6.18;;
78346;SDS011;67803;41.330;69.282;2023-02-28T08:08:12;18.83;;;6.22;;
78346;SDS011;67803;41.330;69.282;2023-02-28T08:10:43;25.05;;;6.18;;
78346;SDS011;67803;41.330;69.282;2023-02-28T08:13:13;19.40;;;6.65;;
78346;SDS011;67803;41.330;69.282;2023-02-28T08:15:44;30.58;;;6.85;;
78346;SDS011;67803;41.330;69.282;2023-02-28T08:18:15;27.45;;;6.90;;
78346;SDS011;67803;41.330;69.282;2023-02-28T08:20:46;29.13;;;7.32;;
78346;SDS011;67803;41.330;69.282;2023-02-28T08:23:16;24.60;;;6.35;;
78346;SDS011;67803;41.330;69.282;2023-02-28T08:25:56;39.63;;;8.35;;
78346;SDS011;67803;41.330;69.282;2023-02-28T08:28:26;23.20;;;6.32;;
78346;SDS011;67803;41.330;69.282;2023-02-28T08:30:57;25.42;;;7.22;;
78346;SDS011;67803;41.330;69.282;2023-02-28T08:33:27;23.48;;;6.60;;
78346;SDS011;67803;41.330;69.282;2023-02-28T08:35:58;18.35;;;6.50;;
78346;SDS011;67803;41.330;69.282;2023-02-28T08:38:28;23.52;;;6.88;;
78346;SDS011;67803;41.330;69.282;2023-02-28T08:41:09;24.13;;;6.70;;
78346;SDS011;67803;41.330;69.282;2023-02-28T08:43:40;23.20;;;6.45;;
78346;SDS011;67803;41.330;69.282;2023-02-28T08:46:11;26.48;;;6.88;;
78346;SDS011;67803;41.330;69.282;2023-02-28T08:48:42;28.40;;;6.75;;
78346;SDS011;67803;41.330;69.282;2023-02-28T08:51:14;20.85;;;5.75;;
78346;SDS011;67803;41.330;69.282;2023-02-28T08:53:47;16.90;;;5.47;;
78346;SDS011;67803;41.330;69.282;2023-02-28T08:56:21;20.92;;;6.68;;
78346;SDS011;67803;41.330;69.282;2023-02-28T08:58:52;19.17;;;5.93;;
78346;SDS011;67803;41.330;69.282;2023-02-28T09:01:26;19.63;;;5.95;;
78346;SDS011;67803;41.330;69.282;2023-02-28T09:03:57;44.60;;;7.47;;
78346;SDS011;67803;41.330;69.282;2023-02-28T09:06:28;22.50;;;5.03;;
78346;SDS011;67803;41.330;69.282;2023-02-28T09:08:58;17.65;;;5.88;;
78346;SDS011;67803;41.330;69.282;2023-02-28T09:11:31;18.42;;;6.05;;
78346;SDS011;67803;41.330;69.282;2023-02-28T09:14:02;19.92;;;5.47;;
78346;SDS011;67803;41.330;69.282;2023-02-28T09:16:33;18.45;;;6.40;;
78346;SDS011;67803;41.330;69.282;2023-02-28T09:19:04;20.15;;;6.75;;
78346;SDS011;67803;41.330;69.282;2023-02-28T09:21:34;59.92;;;9.35;;
78346;SDS011;67803;41.330;69.282;2023-02-28T09:24:06;18.20;;;6.78;;
78346;SDS011;67803;41.330;69.282;2023-02-28T09:26:36;32.67;;;7.80;;
78346;SDS011;67803;41.330;69.282;2023-02-28T09:29:07;23.05;;;6.57;;
78346;SDS011;67803;41.330;69.282;2023-02-28T09:31:38;22.48;;;6.38;;
78346;SDS011;67803;41.330;69.282;2023-02-28T09:34:08;20.92;;;6.13;;
78346;SDS011;67803;41.330;69.282;2023-02-28T09:36:39;21.15;;;5.90;;
78346;SDS011;67803;41.330;69.282;2023-02-28T09:39:09;18.50;;;6.53;;
78346;SDS011;67803;41.330;69.282;2023-02-28T09:41:44;15.00;;;5.40;;
78346;SDS011;67803;41.330;69.282;2023-02-28T09:46:51;24.05;;;5.57;;
78346;SDS011;67803;41.330;69.282;2023-02-28T09:49:23;15.77;;;5.30;;
78346;SDS011;67803;41.330;69.282;2023-02-28T09:51:57;20.70;;;4.90;;
78346;SDS011;67803;41.330;69.282;2023-02-28T09:54:30;11.80;;;5.35;;
78346;SDS011;67803;41.330;69.282;2023-02-28T09:57:06;17.35;;;5.20;;
78346;SDS011;67803;41.330;69.282;2023-02-28T09:59:39;21.20;;;6.88;;
78346;SDS011;67803;41.330;69.282;2023-02-28T10:04:55;15.95;;;3.67;;
78346;SDS011;67803;41.330;69.282;2023-02-28T10:10:56;9.82;;;3.25;;
78346;SDS011;67803;41.330;69.282;2023-02-28T10:13:02;18.55;;;3.78;;
78346;SDS011;67803;41.330;69.282;2023-02-28T10:15:34;12.65;;;3.83;;
78346;SDS011;67803;41.330;69.282;2023-02-28T10:18:06;12.35;;;3.25;;
78346;SDS011;67803;41.330;69.282;2023-02-28T10:20:41;15.75;;;3.75;;
78346;SDS011;67803;41.330;69.282;2023-02-28T10:23:28;14.82;;;3.42;;
78346;SDS011;67803;41.330;69.282;2023-02-28T10:26:08;12.80;;;3.40;;
78346;SDS011;67803;41.330;69.282;2023-02-28T10:28:40;13.10;;;3.17;;
78346;SDS011;67803;41.330;69.282;2023-02-28T10:31:11;9.20;;;2.80;;
78346;SDS011;67803;41.330;69.282;2023-02-28T10:33:43;17.60;;;3.72;;
78346;SDS011;67803;41.330;69.282;2023-02-28T10:36:15;16.40;;;3.47;;
78346;SDS011;67803;41.330;69.282;2023-02-28T10:38:46;11.38;;;3.60;;
78346;SDS011;67803;41.330;69.282;2023-02-28T10:41:28;20.15;;;6.15;;
78346;SDS011;67803;41.330;69.282;2023-02-28T10:44:17;22.20;;;7.35;;
78346;SDS011;67803;41.330;69.282;2023-02-28T10:46:49;23.52;;;6.72;;
78346;SDS011;67803;41.330;69.282;2023-02-28T10:49:21;19.27;;;6.00;;
78346;SDS011;67803;41.330;69.282;2023-02-28T10:51:54;18.02;;;7.10;;
78346;SDS011;67803;41.330;69.282;2023-02-28T10:59:39;21.23;;;7.57;;
78346;SDS011;67803;41.330;69.282;2023-02-28T11:04:59;21.02;;;8.52;;
78346;SDS011;67803;41.330;69.282;2023-02-28T11:07:29;29.23;;;8.20;;
78346;SDS011;67803;41.330;69.282;2023-02-28T11:10:00;23.30;;;7.55;;
78346;SDS011;67803;41.330;69.282;2023-02-28T11:12:37;46.92;;;8.95;;
78346;SDS011;67803;41.330;69.282;2023-02-28T11:15:30;15.73;;;6.10;;
78346;SDS011;67803;41.330;69.282;2023-02-28T11:18:08;16.65;;;5.10;;
78346;SDS011;67803;41.330;69.282;2023-02-28T11:20:47;14.07;;;4.72;;
78346;SDS011;67803;41.330;69.282;2023-02-28T11:23:19;11.95;;;5.00;;
78346;SDS011;67803;41.330;69.282;2023-02-28T11:25:51;13.13;;;4.32;;
78346;SDS011;67803;41.330;69.282;2023-02-28T11:28:28;16.60;;;5.78;;
78346;SDS011;67803;41.330;69.282;2023-02-28T11:31:19;13.95;;;4.65;;
78346;SDS011;67803;41.330;69.282;2023-02-28T11:33:51;15.27;;;4.85;;
78346;SDS011;67803;41.330;69.282;2023-02-28T11:36:27;8.80;;;4.05;;
78346;SDS011;67803;41.330;69.282;2023-02-28T11:39:04;11.50;;;4.28;;
78346;SDS011;67803;41.330;69.282;2023-02-28T11:41:39;15.77;;;5.50;;
78346;SDS011;67803;41.330;69.282;2023-02-28T11:50:30;13.23;;;4.63;;
78346;SDS011;67803;41.330;69.282;2023-02-28T11:53:05;17.42;;;5.30;;
78346;SDS011;67803;41.330;69.282;2023-02-28T11:55:49;14.68;;;4.70;;
78346;SDS011;67803;41.330;69.282;2023-02-28T11:58:26;14.55;;;4.93;;
78346;SDS011;67803;41.330;69.282;2023-02-28T12:03:43;16.60;;;6.07;;
78346;SDS011;67803;41.330;69.282;2023-02-28T12:11:47;33.30;;;16.75;;
78346;SDS011;67803;41.330;69.282;2023-02-28T12:17:04;19.23;;;9.25;;
78346;SDS011;67803;41.330;69.282;2023-02-28T12:19:43;40.75;;;7.68;;
78346;SDS011;67803;41.330;69.282;2023-02-28T12:22:22;21.50;;;7.20;;
78346;SDS011;67803;41.330;69.282;2023-02-28T12:27:45;18.42;;;6.57;;
78346;SDS011;67803;41.330;69.282;2023-02-28T12:30:18;19.33;;;6.57;;
78346;SDS011;67803;41.330;69.282;2023-02-28T12:32:51;19.23;;;5.80;;
78346;SDS011;67803;41.330;69.282;2023-02-28T12:35:33;17.67;;;5.70;;
78346;SDS011;67803;41.330;69.282;2023-02-28T12:38:06;19.42;;;5.88;;
78346;SDS011;67803;41.330;69.282;2023-02-28T12:41:00;12.45;;;5.68;;
78346;SDS011;67803;41.330;69.282;2023-02-28T12:43:34;22.33;;;7.10;;
78346;SDS011;67803;41.330;69.282;2023-02-28T12:46:11;16.40;;;6.57;;
78346;SDS011;67803;41.330;69.282;2023-02-28T12:48:58;15.23;;;6.90;;
78346;SDS011;67803;41.330;69.282;2023-02-28T12:51:29;13.80;;;6.18;;
78346;SDS011;67803;41.330;69.282;2023-02-28T12:54:03;15.07;;;6.10;;
78346;SDS011;67803;41.330;69.282;2023-02-28T12:56:56;15.10;;;6.35;;
78346;SDS011;67803;41.330;69.282;2023-02-28T12:59:36;126.65;;;14.27;;
78346;SDS011;67803;41.330;69.282;2023-02-28T13:05:07;20.05;;;7.00;;
78346;SDS011;67803;41.330;69.282;2023-02-28T13:10:16;22.60;;;8.38;;
78346;SDS011;67803;41.330;69.282;2023-02-28T13:12:49;24.85;;;9.25;;
78346;SDS011;67803;41.330;69.282;2023-02-28T13:15:27;22.90;;;8.48;;
78346;SDS011;67803;41.330;69.282;2023-02-28T13:18:00;22.70;;;8.93;;
78346;SDS011;67803;41.330;69.282;2023-02-28T13:20:34;22.60;;;8.18;;
78346;SDS011;67803;41.330;69.282;2023-02-28T13:23:04;21.25;;;8.65;;
78346;SDS011;67803;41.330;69.282;2023-02-28T13:25:55;22.27;;;8.43;;
78346;SDS011;67803;41.330;69.282;2023-02-28T13:31:15;23.15;;;9.05;;
78346;SDS011;67803;41.330;69.282;2023-02-28T13:38:53;25.65;;;9.50;;
78346;SDS011;67803;41.330;69.282;2023-02-28T13:47:15;21.58;;;10.25;;
78346;SDS011;67803;41.330;69.282;2023-02-28T13:49:29;48.97;;;11.32;;
78346;SDS011;67803;41.330;69.282;2023-02-28T13:52:09;27.33;;;9.93;;
78346;SDS011;67803;41.330;69.282;2023-02-28T14:02:40;22.67;;;8.80;;
78346;SDS011;67803;41.330;69.282;2023-02-28T14:05:17;25.13;;;8.15;;
78346;SDS011;67803;41.330;69.282;2023-02-28T14:07:48;19.35;;;6.43;;
78346;SDS011;67803;41.330;69.282;2023-02-28T14:10:27;22.63;;;5.85;;
78346;SDS011;67803;41.330;69.282;2023-02-28T14:13:00;26.70;;;5.00;;
78346;SDS011;67803;41.330;69.282;2023-02-28T14:15:38;18.98;;;4.80;;
78346;SDS011;67803;41.330;69.282;2023-02-28T14:18:56;21.35;;;5.18;;
78346;SDS011;67803;41.330;69.282;2023-02-28T14:37:26;15.85;;;4.80;;
78346;SDS011;67803;41.330;69.282;2023-02-28T14:39:59;12.75;;;4.80;;
78346;SDS011;67803;41.330;69.282;2023-02-28T14:42:35;28.48;;;6.43;;
78346;SDS011;67803;41.330;69.282;2023-02-28T14:45:17;22.33;;;5.20;;
78346;SDS011;67803;41.330;69.282;2023-02-28T14:47:48;18.20;;;5.18;;
78346;SDS011;67803;41.330;69.282;2023-02-28T14:50:20;19.38;;;5.45;;
78346;SDS011;67803;41.330;69.282;2023-02-28T14:52:54;22.02;;;5.18;;
78346;SDS011;67803;41.330;69.282;2023-02-28T14:55:29;51.35;;;7.63;;
78346;SDS011;67803;41.330;69.282;2023-02-28T14:58:00;28.45;;;6.65;;
78346;SDS011;67803;41.330;69.282;2023-02-28T15:00:35;18.40;;;5.60;;
78346;SDS011;67803;41.330;69.282;2023-02-28T15:03:18;21.08;;;5.75;;
78346;SDS011;67803;41.330;69.282;2023-02-28T15:05:55;18.80;;;5.85;;
78346;SDS011;67803;41.330;69.282;2023-02-28T15:08:27;17.95;;;5.53;;
78346;SDS011;67803;41.330;69.282;2023-02-28T15:11:02;21.27;;;6.10;;
78346;SDS011;67803;41.330;69.282;2023-02-28T15:13:39;28.63;;;6.60;;
78346;SDS011;67803;41.330;69.282;2023-02-28T15:16:11;20.27;;;5.82;;
78346;SDS011;67803;41.330;69.282;2023-02-28T15:18:53;24.95;;;5.97;;
78346;SDS011;67803;41.330;69.282;2023-02-28T15:21:25;23.65;;;5.88;;
78346;SDS011;67803;41.330;69.282;2023-02-28T15:26:34;15.98;;;5.10;;
78346;SDS011;67803;41.330;69.282;2023-02-28T15:29:07;18.60;;;5.35;;
78346;SDS011;67803;41.330;69.282;2023-02-28T15:32:16;26.50;;;6.22;;
78346;SDS011;67803;41.330;69.282;2023-02-28T15:34:42;20.15;;;5.28;;
78346;SDS011;67803;41.330;69.282;2023-02-28T15:39:55;23.77;;;6.55;;
78346;SDS011;67803;41.330;69.282;2023-02-28T15:42:29;27.83;;;6.20;;
78346;SDS011;67803;41.330;69.282;2023-02-28T15:45:01;24.63;;;6.70;;
78346;SDS011;67803;41.330;69.282;2023-02-28T15:47:32;22.40;;;7.13;;
78346;SDS011;67803;41.330;69.282;2023-02-28T15:50:05;19.10;;;6.65;;
78346;SDS011;67803;41.330;69.282;2023-02-28T15:52:38;26.20;;;6.80;;
78346;SDS011;67803;41.330;69.282;2023-02-28T15:55:11;25.25;;;6.35;;
78346;SDS011;67803;41.330;69.282;2023-02-28T15:57:49;26.85;;;6.82;;
78346;SDS011;67803;41.330;69.282;2023-02-28T16:00:21;25.55;;;7.55;;
78346;SDS011;67803;41.330;69.282;2023-02-28T16:02:52;25.67;;;7.28;;
78346;SDS011;67803;41.330;69.282;2023-02-28T16:05:24;28.45;;;7.55;;
78346;SDS011;67803;41.330;69.282;2023-02-28T16:07:59;29.52;;;7.63;;
78346;SDS011;67803;41.330;69.282;2023-02-28T16:10:30;26.88;;;9.38;;
78346;SDS011;67803;41.330;69.282;2023-02-28T16:13:01;35.42;;;12.13;;
78346;SDS011;67803;41.330;69.282;2023-02-28T16:15:35;38.55;;;13.20;;
78346;SDS011;67803;41.330;69.282;2023-02-28T16:18:11;35.22;;;12.85;;
78346;SDS011;67803;41.330;69.282;2023-02-28T16:20:42;32.35;;;13.88;;
78346;SDS011;67803;41.330;69.282;2023-02-28T16:23:14;38.00;;;14.85;;
78346;SDS011;67803;41.330;69.282;2023-02-28T16:25:45;42.85;;;16.45;;
78346;SDS011;67803;41.330;69.282;2023-02-28T16:28:24;36.00;;;16.20;;
78346;SDS011;67803;41.330;69.282;2023-02-28T16:30:55;34.75;;;15.52;;
78346;SDS011;67803;41.330;69.282;2023-02-28T16:33:25;37.55;;;15.82;;
78346;SDS011;67803;41.330;69.282;2023-02-28T16:35:56;44.50;;;17.20;;
78346;SDS011;67803;41.330;69.282;2023-02-28T16:38:26;46.33;;;16.92;;
78346;SDS011;67803;41.330;69.282;2023-02-28T16:40:57;43.78;;;17.83;;
78346;SDS011;67803;41.330;69.282;2023-02-28T16:43:29;44.05;;;20.92;;
78346;SDS011;67803;41.330;69.282;2023-02-28T16:45:59;46.83;;;17.55;;
78346;SDS011;67803;41.330;69.282;2023-02-28T16:48:31;38.95;;;16.40;;
78346;SDS011;67803;41.330;69.282;2023-02-28T16:51:01;39.28;;;15.20;;
78346;SDS011;67803;41.330;69.282;2023-02-28T16:53:34;36.22;;;14.73;;
78346;SDS011;67803;41.330;69.282;2023-02-28T16:56:04;33.65;;;15.77;;
78346;SDS011;67803;41.330;69.282;2023-02-28T16:58:36;42.95;;;15.23;;
78346;SDS011;67803;41.330;69.282;2023-02-28T17:01:07;44.63;;;18.30;;